createdAt,value
2023-10-20T00:01:22.632Z,15.02
2023-10-20T00:04:25.629Z,14.73
2023-10-20T00:07:28.636Z,15.03
2023-10-20T00:10:36.721Z,15.25
2023-10-20T00:13:40.333Z,14.73
2023-10-20T00:16:43.321Z,15.90
2023-10-20T00:19:46.449Z,16.03
2023-10-20T00:22:49.509Z,15.27
2023-10-20T00:25:52.834Z,16.77
2023-10-20T00:28:55.838Z,14.60
2023-10-20T00:31:58.961Z,14.80
2023-10-20T00:35:05.361Z,15.10
2023-10-20T00:38:08.453Z,16.03
2023-10-20T00:41:11.844Z,15.27
2023-10-20T00:44:15.704Z,15.52
2023-10-20T00:47:21.900Z,15.10
2023-10-20T00:50:25.075Z,15.20
2023-10-20T00:53:29.497Z,14.90
2023-10-20T00:56:33.526Z,14.13
2023-10-20T00:59:36.593Z,15.07
2023-10-20T01:02:40.217Z,14.48
2023-10-20T01:05:43.369Z,14.77
2023-10-20T01:08:46.353Z,14.77
2023-10-20T01:11:49.340Z,15.52
2023-10-20T01:14:52.435Z,15.25
2023-10-20T01:17:55.899Z,14.43
2023-10-20T01:20:59.455Z,14.50
2023-10-20T01:24:03.360Z,15.13
2023-10-20T01:27:06.368Z,13.20
2023-10-20T01:30:12.045Z,13.52
2023-10-20T01:33:15.288Z,14.02
2023-10-20T01:36:18.370Z,14.57
2023-10-20T01:39:21.360Z,14.83
2023-10-20T01:42:24.424Z,13.63
2023-10-20T01:45:27.475Z,14.20
2023-10-20T01:48:31.836Z,14.90
2023-10-20T01:51:36.177Z,15.10
2023-10-20T01:54:39.179Z,14.57
2023-10-20T01:57:42.294Z,14.63
2023-10-20T02:00:45.590Z,14.68
2023-10-20T02:03:51.049Z,15.25
2023-10-20T02:06:54.089Z,14.73
2023-10-20T02:09:57.055Z,15.40
2023-10-20T02:13:00.115Z,14.85
2023-10-20T02:16:04.070Z,14.55
2023-10-20T02:19:07.081Z,14.93
2023-10-20T02:22:10.084Z,13.77
2023-10-20T02:25:13.606Z,15.43
2023-10-20T02:28:16.980Z,15.15
2023-10-20T02:31:20.162Z,14.55
2023-10-20T02:34:24.183Z,15.25
2023-10-20T02:37:27.195Z,13.53
2023-10-20T02:40:30.200Z,14.90
2023-10-20T02:43:33.258Z,14.50
2023-10-20T02:46:36.359Z,14.68
2023-10-20T02:49:39.415Z,15.23
2023-10-20T02:52:43.222Z,14.97
2023-10-20T02:55:47.681Z,14.53
2023-10-20T02:58:52.836Z,14.45
2023-10-20T03:01:57.417Z,14.63
2023-10-20T03:05:00.635Z,15.30
2023-10-20T03:08:03.811Z,14.33
2023-10-20T03:11:07.403Z,15.47
2023-10-20T03:14:10.487Z,14.80
2023-10-20T03:17:13.968Z,14.75
2023-10-20T03:20:18.821Z,14.32
2023-10-20T03:23:22.480Z,14.47
2023-10-20T03:26:25.697Z,14.30
2023-10-20T03:29:29.583Z,15.15
2023-10-20T03:32:34.328Z,13.23
2023-10-20T03:35:37.609Z,13.65
2023-10-20T03:38:40.732Z,14.33
2023-10-20T03:41:43.746Z,14.37
2023-10-20T03:44:49.186Z,15.73
2023-10-20T03:47:52.851Z,14.95
2023-10-20T03:50:56.301Z,14.40
2023-10-20T03:53:59.357Z,14.67
2023-10-20T03:57:02.316Z,13.87
2023-10-20T04:00:16.876Z,15.07
2023-10-20T04:03:19.937Z,13.73
2023-10-20T04:06:23.655Z,14.77
2023-10-20T04:09:26.694Z,16.73
2023-10-20T04:12:29.722Z,29.97
2023-10-20T04:15:37.361Z,36.15
2023-10-20T04:18:41.793Z,22.98
2023-10-20T04:21:45.551Z,15.13
2023-10-20T04:24:49.506Z,18.47
2023-10-20T04:27:58.982Z,14.07
2023-10-20T04:31:21.030Z,14.00
2023-10-20T04:34:42.476Z,12.80
2023-10-20T04:38:04.311Z,12.60
2023-10-20T04:41:27.884Z,13.97
2023-10-20T04:44:49.286Z,11.40
2023-10-20T04:48:01.530Z,13.52
2023-10-20T04:51:19.817Z,14.23
2023-10-20T04:54:43.100Z,12.98
2023-10-20T04:57:46.120Z,12.70
2023-10-20T05:01:00.742Z,12.60
2023-10-20T05:04:14.683Z,13.45
2023-10-20T05:07:20.028Z,13.55
2023-10-20T05:10:23.107Z,12.07
2023-10-20T05:13:26.252Z,14.70
2023-10-20T05:16:29.861Z,10.40
2023-10-20T05:19:34.105Z,13.55
2023-10-20T05:22:37.150Z,12.32
2023-10-20T05:25:47.869Z,10.43
2023-10-20T05:28:51.359Z,11.03
2023-10-20T05:31:54.397Z,15.93
2023-10-20T05:35:00.257Z,11.85
2023-10-20T05:38:03.293Z,11.20
2023-10-20T05:41:06.352Z,10.88
2023-10-20T05:44:13.404Z,18.70
2023-10-20T05:47:16.871Z,14.17
2023-10-20T05:50:19.974Z,12.82
2023-10-20T05:53:23.545Z,13.05
2023-10-20T05:56:26.653Z,14.95
2023-10-20T05:59:29.804Z,12.00
2023-10-20T06:02:33.738Z,9.57
2023-10-20T06:05:39.927Z,12.27
2023-10-20T06:08:42.998Z,11.68
2023-10-20T06:11:46.026Z,13.63
2023-10-20T06:14:49.148Z,12.83
2023-10-20T06:17:52.999Z,13.30
2023-10-20T06:20:56.242Z,12.50
2023-10-20T06:23:59.263Z,13.32
2023-10-20T06:27:05.173Z,13.90
2023-10-20T06:30:15.850Z,16.97
2023-10-20T06:33:19.899Z,16.30
2023-10-20T06:36:27.380Z,13.73
2023-10-20T06:39:31.972Z,13.02
2023-10-20T06:42:35.246Z,14.25
2023-10-20T06:45:38.273Z,12.93
2023-10-20T06:48:41.332Z,14.10
2023-10-20T06:51:44.399Z,14.15
2023-10-20T06:55:08.707Z,14.50
2023-10-20T06:58:12.726Z,14.05
2023-10-20T07:01:15.830Z,12.03
2023-10-20T07:04:18.913Z,10.23
2023-10-20T07:07:22.012Z,10.95
2023-10-20T07:10:30.072Z,10.43
2023-10-20T07:13:33.557Z,10.10
2023-10-20T07:16:36.683Z,8.90
2023-10-20T07:19:40.040Z,10.60
2023-10-20T07:22:43.144Z,12.68
2023-10-20T07:25:46.292Z,14.30
2023-10-20T07:28:49.316Z,17.05
2023-10-20T07:31:52.962Z,16.27
2023-10-20T07:34:56.182Z,16.97
2023-10-20T07:38:01.910Z,17.63
2023-10-20T07:41:08.862Z,20.30
2023-10-20T07:44:17.227Z,19.98
2023-10-20T07:47:20.370Z,21.17
2023-10-20T07:50:23.579Z,20.40
2023-10-20T07:53:27.035Z,17.70
2023-10-20T07:56:30.483Z,18.55
2023-10-20T07:59:33.831Z,16.20
2023-10-20T08:02:37.178Z,16.50
2023-10-20T08:05:41.170Z,18.23
2023-10-20T08:08:45.589Z,18.20
2023-10-20T08:11:48.823Z,17.80
2023-10-20T08:14:51.930Z,39.20
2023-10-20T08:17:55.603Z,31.60
2023-10-20T08:21:09.681Z,20.90
2023-10-20T08:24:12.877Z,20.27
2023-10-20T08:27:19.701Z,18.50
2023-10-20T08:30:22.868Z,16.90
2023-10-20T08:33:25.946Z,16.03
2023-10-20T08:36:28.984Z,15.63
2023-10-20T08:39:32.987Z,13.30
2023-10-20T08:42:37.220Z,13.75
2023-10-20T08:45:40.362Z,11.27
2023-10-20T08:48:44.642Z,12.13
2023-10-20T08:51:48.352Z,10.97
2023-10-20T08:54:52.785Z,9.80
2023-10-20T08:57:55.970Z,8.80
2023-10-20T09:00:59.852Z,7.65
2023-10-20T09:04:04.286Z,7.67
2023-10-20T09:07:15.377Z,7.27
2023-10-20T09:10:18.537Z,6.45
2023-10-20T09:13:21.720Z,5.75
2023-10-20T09:16:24.900Z,5.65
2023-10-20T09:19:28.127Z,6.10
2023-10-20T09:22:31.304Z,5.47
2023-10-20T09:25:34.753Z,6.05
2023-10-20T09:28:38.335Z,6.05
2023-10-20T09:31:41.718Z,5.82
2023-10-20T09:34:45.220Z,5.77
2023-10-20T09:37:52.881Z,6.23
2023-10-20T09:41:14.158Z,5.93
2023-10-20T09:44:22.964Z,5.63
2023-10-20T09:47:29.526Z,5.95
2023-10-20T09:50:33.324Z,5.53
2023-10-20T09:53:37.074Z,5.30
2023-10-20T09:56:40.835Z,5.15
2023-10-20T09:59:44.029Z,5.88
2023-10-20T10:02:51.032Z,5.40
2023-10-20T10:05:54.174Z,6.03
2023-10-20T10:08:57.256Z,6.57
2023-10-20T10:12:00.517Z,4.75
2023-10-20T10:15:09.450Z,5.25
2023-10-20T10:18:14.227Z,5.35
2023-10-20T10:21:27.920Z,4.90
2023-10-20T10:24:33.165Z,5.37
2023-10-20T10:27:37.722Z,4.93
2023-10-20T10:30:41.000Z,5.03
2023-10-20T10:33:44.285Z,5.60
2023-10-20T10:36:48.444Z,5.83
2023-10-20T10:39:51.523Z,5.00
2023-10-20T10:42:54.730Z,4.97
2023-10-20T10:45:57.782Z,4.95
2023-10-20T10:49:11.271Z,4.90
2023-10-20T10:52:14.414Z,4.90
2023-10-20T10:55:17.660Z,5.00
2023-10-20T10:58:20.991Z,6.00
2023-10-20T11:01:24.030Z,5.15
2023-10-20T11:04:27.214Z,4.95
2023-10-20T11:07:30.251Z,4.63
2023-10-20T11:10:36.239Z,5.07
2023-10-20T11:13:41.636Z,4.97
2023-10-20T11:16:44.716Z,5.47
2023-10-20T11:19:47.888Z,5.03
2023-10-20T11:22:54.959Z,5.03
2023-10-20T11:26:00.662Z,4.60
2023-10-20T11:29:05.354Z,4.95
2023-10-20T11:32:14.494Z,5.40
2023-10-20T11:35:17.700Z,4.60
2023-10-20T11:38:20.831Z,5.00
2023-10-20T11:41:23.928Z,5.27
2023-10-20T11:44:27.641Z,5.00
2023-10-20T11:47:30.779Z,4.50
2023-10-20T11:50:33.891Z,4.80
2023-10-20T11:53:36.982Z,4.27
2023-10-20T11:56:41.447Z,4.60
2023-10-20T11:59:44.779Z,4.38
2023-10-20T12:02:47.920Z,4.40
2023-10-20T12:05:51.925Z,4.95
2023-10-20T12:08:54.983Z,4.13
2023-10-20T12:11:58.047Z,3.80
2023-10-20T12:15:01.651Z,5.05
2023-10-20T12:18:07.366Z,4.28
2023-10-20T12:21:12.685Z,3.60
2023-10-20T12:24:17.171Z,3.90
2023-10-20T12:27:21.274Z,4.23
2023-10-20T12:30:24.303Z,4.25
2023-10-20T12:33:28.510Z,3.80
2023-10-20T12:36:32.827Z,4.68
2023-10-20T12:39:35.977Z,4.17
2023-10-20T12:42:38.987Z,3.93
2023-10-20T12:45:42.002Z,4.10
2023-10-20T12:48:45.102Z,4.43
2023-10-20T12:51:48.170Z,4.25
2023-10-20T12:54:52.534Z,4.13
2023-10-20T12:57:55.751Z,4.33
2023-10-20T13:00:58.705Z,4.03
2023-10-20T13:04:01.845Z,4.63
2023-10-20T13:07:05.031Z,4.45
2023-10-20T13:10:08.664Z,3.70
2023-10-20T13:13:12.861Z,4.13
2023-10-20T13:16:16.873Z,4.18
2023-10-20T13:19:19.909Z,4.47
2023-10-20T13:22:23.005Z,4.57
2023-10-20T13:25:28.181Z,4.30
2023-10-20T13:28:31.839Z,3.97
2023-10-20T13:31:35.234Z,4.38
2023-10-20T13:34:38.930Z,4.40
2023-10-20T13:37:41.891Z,4.65
2023-10-20T13:40:44.884Z,4.60
2023-10-20T13:43:47.903Z,4.70
2023-10-20T13:46:51.506Z,4.53
2023-10-20T13:49:54.522Z,4.18
2023-10-20T13:52:57.498Z,4.57
2023-10-20T13:56:00.596Z,5.37
2023-10-20T13:59:04.262Z,4.77
2023-10-20T14:02:07.821Z,4.20
2023-10-20T14:05:12.077Z,4.35
2023-10-20T14:08:15.069Z,3.50
2023-10-20T14:11:18.730Z,4.60
2023-10-20T14:14:21.767Z,4.63
2023-10-20T14:17:24.878Z,4.75
2023-10-20T14:20:28.090Z,4.80
2023-10-20T14:23:33.054Z,3.80
2023-10-20T14:26:36.329Z,4.50
2023-10-20T14:29:39.386Z,4.20
2023-10-20T14:32:42.421Z,3.92
2023-10-20T14:35:45.500Z,4.30
2023-10-20T14:38:48.692Z,4.60
2023-10-20T14:41:53.056Z,3.93
2023-10-20T14:44:56.314Z,4.57
2023-10-20T14:47:59.407Z,4.30
2023-10-20T14:51:09.490Z,4.50
2023-10-20T14:54:14.388Z,4.75
2023-10-20T14:57:17.396Z,4.53
2023-10-20T15:00:20.463Z,4.73
2023-10-20T15:03:23.689Z,4.80
2023-10-20T15:06:30.975Z,4.05
2023-10-20T15:09:34.429Z,5.32
2023-10-20T15:12:38.135Z,5.07
2023-10-20T15:15:41.229Z,4.50
2023-10-20T15:18:44.817Z,4.45
2023-10-20T15:21:48.429Z,5.25
2023-10-20T15:24:53.049Z,4.75
2023-10-20T15:27:56.068Z,4.70
2023-10-20T15:30:59.096Z,4.40
2023-10-20T15:34:02.054Z,5.05
2023-10-20T15:37:05.051Z,4.90
2023-10-20T15:40:20.915Z,4.43
2023-10-20T15:43:24.232Z,4.17
2023-10-20T15:46:27.279Z,4.40
2023-10-20T15:49:30.299Z,4.85
2023-10-20T15:52:33.743Z,4.93
2023-10-20T15:55:40.902Z,4.80
2023-10-20T15:58:44.306Z,4.53
2023-10-20T16:01:47.477Z,4.73
2023-10-20T16:04:53.331Z,5.35
2023-10-20T16:07:56.343Z,5.07
2023-10-20T16:10:59.347Z,5.07
2023-10-20T16:14:02.374Z,5.50
2023-10-20T16:17:05.614Z,4.70
2023-10-20T16:20:10.226Z,4.57
2023-10-20T16:23:13.464Z,5.28
2023-10-20T16:26:16.607Z,4.80
2023-10-20T16:29:19.562Z,5.40
2023-10-20T16:32:22.527Z,4.77
2023-10-20T16:35:25.605Z,5.65
2023-10-20T16:38:28.731Z,5.30
2023-10-20T16:41:32.376Z,4.90
2023-10-20T16:44:35.701Z,4.53
2023-10-20T16:47:39.297Z,5.33
2023-10-20T16:50:42.900Z,6.00
2023-10-20T16:53:48.330Z,5.95
2023-10-20T16:56:52.008Z,6.07
2023-10-20T16:59:55.165Z,6.90
2023-10-20T17:02:58.749Z,5.43
2023-10-20T17:06:06.000Z,7.45
2023-10-20T17:09:09.224Z,6.20
2023-10-20T17:12:12.243Z,5.78
2023-10-20T17:15:15.511Z,4.63
2023-10-20T17:18:18.540Z,5.40
2023-10-20T17:21:21.560Z,5.32
2023-10-20T17:24:25.251Z,5.38
2023-10-20T17:27:28.230Z,4.53
2023-10-20T17:30:31.217Z,5.17
2023-10-20T17:33:34.390Z,4.80
2023-10-20T17:36:37.761Z,5.95
2023-10-20T17:39:42.371Z,5.68
2023-10-20T17:42:45.574Z,5.13
2023-10-20T17:45:48.710Z,5.30
2023-10-20T17:48:52.499Z,6.20
2023-10-20T17:51:55.473Z,5.18
2023-10-20T17:54:58.476Z,5.03
2023-10-20T17:58:01.499Z,5.63
2023-10-20T18:01:05.368Z,6.03
2023-10-20T18:04:09.379Z,5.43
2023-10-20T18:07:12.482Z,5.95
2023-10-20T18:10:15.559Z,5.57
2023-10-20T18:13:18.603Z,5.25
2023-10-20T18:16:22.635Z,5.87
2023-10-20T18:19:25.803Z,5.07
2023-10-20T18:22:28.913Z,5.30
2023-10-20T18:25:32.296Z,5.30
2023-10-20T18:28:35.782Z,5.10
2023-10-20T18:31:38.841Z,5.23
2023-10-20T18:34:41.932Z,4.70
2023-10-20T18:37:44.977Z,5.63
2023-10-20T18:40:48.063Z,4.75
2023-10-20T18:43:51.085Z,5.22
2023-10-20T18:46:54.078Z,6.07
2023-10-20T18:49:57.084Z,5.20
2023-10-20T18:53:01.237Z,4.90
2023-10-20T18:56:05.192Z,4.82
2023-10-20T18:59:08.191Z,4.70
2023-10-20T19:02:11.301Z,5.40
2023-10-20T19:05:14.706Z,7.73
2023-10-20T19:08:18.028Z,4.82
2023-10-20T19:11:22.065Z,4.82
2023-10-20T19:14:25.435Z,5.90
2023-10-20T19:17:29.772Z,4.53
2023-10-20T19:20:32.890Z,4.93
2023-10-20T19:23:37.213Z,5.53
2023-10-20T19:26:40.776Z,4.88
2023-10-20T19:29:43.818Z,3.72
2023-10-20T19:32:46.909Z,5.03
2023-10-20T19:35:50.298Z,5.47
2023-10-20T19:38:53.394Z,4.70
2023-10-20T19:41:56.803Z,4.70
2023-10-20T19:45:02.367Z,4.72
2023-10-20T19:48:05.985Z,4.90
2023-10-20T19:51:09.052Z,4.07
2023-10-20T19:54:12.150Z,5.03
2023-10-20T19:57:15.266Z,5.13
2023-10-20T20:00:19.692Z,4.95
2023-10-20T20:03:22.933Z,4.47
2023-10-20T20:06:25.998Z,4.50
2023-10-20T20:09:30.001Z,5.35
2023-10-20T20:12:33.507Z,5.03
2023-10-20T20:15:36.501Z,4.47
2023-10-20T20:18:42.737Z,4.00
2023-10-20T20:21:46.105Z,3.97
2023-10-20T20:24:49.159Z,5.32
2023-10-20T20:27:53.400Z,4.50
2023-10-20T20:30:58.032Z,4.32
2023-10-20T20:34:01.087Z,4.40
2023-10-20T20:37:05.285Z,3.97
2023-10-20T20:40:09.170Z,4.00
2023-10-20T20:43:12.833Z,4.47
2023-10-20T20:46:16.463Z,4.40
2023-10-20T20:49:19.498Z,5.37
2023-10-20T20:52:22.527Z,5.00
2023-10-20T20:55:25.535Z,4.82
2023-10-20T20:58:28.594Z,4.90
2023-10-20T21:01:32.174Z,3.92
2023-10-20T21:04:35.269Z,4.47
2023-10-20T21:07:38.370Z,5.27
2023-10-20T21:10:41.374Z,4.38
2023-10-20T21:13:44.464Z,4.20
2023-10-20T21:16:47.601Z,4.82
2023-10-20T21:19:50.660Z,3.90
2023-10-20T21:22:55.290Z,4.33
2023-10-20T21:26:01.316Z,5.13
2023-10-20T21:29:07.577Z,4.47
2023-10-20T21:32:10.568Z,4.45
2023-10-20T21:35:13.577Z,4.70
2023-10-20T21:38:16.933Z,4.10
2023-10-20T21:41:19.886Z,3.67
2023-10-20T21:44:22.832Z,4.50
2023-10-20T21:47:25.794Z,4.30
2023-10-20T21:50:29.184Z,4.67
2023-10-20T21:53:35.029Z,4.33
2023-10-20T21:56:38.828Z,4.53
2023-10-20T21:59:42.174Z,4.72
2023-10-20T22:02:45.781Z,4.32
2023-10-20T22:05:48.994Z,3.90
2023-10-20T22:08:52.828Z,5.23
2023-10-20T22:11:56.023Z,4.25
2023-10-20T22:14:59.127Z,4.55
2023-10-20T22:18:03.388Z,4.35
2023-10-20T22:21:07.000Z,4.00
2023-10-20T22:24:10.272Z,4.07
2023-10-20T22:27:13.499Z,4.65
2023-10-20T22:30:16.845Z,4.80
2023-10-20T22:33:20.097Z,5.07
2023-10-20T22:36:23.192Z,5.17
2023-10-20T22:39:26.273Z,4.83
2023-10-20T22:42:29.257Z,4.90
2023-10-20T22:45:32.252Z,4.22
2023-10-20T22:48:35.314Z,5.13
2023-10-20T22:51:38.374Z,4.63
2023-10-20T22:54:41.503Z,4.73
2023-10-20T22:57:44.586Z,5.03
2023-10-20T23:00:47.650Z,4.30
2023-10-20T23:03:50.760Z,5.13
2023-10-20T23:06:54.180Z,4.40
2023-10-20T23:09:57.309Z,5.37
2023-10-20T23:13:00.304Z,5.15
2023-10-20T23:16:04.411Z,5.72
2023-10-20T23:19:07.588Z,5.82
2023-10-20T23:22:10.634Z,6.53
2023-10-20T23:25:13.641Z,5.30
2023-10-20T23:28:16.631Z,5.50
2023-10-20T23:31:20.650Z,5.28
2023-10-20T23:34:23.719Z,6.05
2023-10-20T23:37:26.762Z,6.77
2023-10-20T23:40:29.803Z,5.97
2023-10-20T23:43:32.818Z,5.25
2023-10-20T23:46:35.840Z,4.95
2023-10-20T23:49:40.060Z,5.72
2023-10-20T23:52:43.032Z,6.07
2023-10-20T23:55:46.024Z,5.40
2023-10-20T23:58:49.016Z,5.60
